createdAt,value
2018-08-17T00:00:07.127Z,63.87
2018-08-17T00:02:35.557Z,64.53
2018-08-17T00:05:04.020Z,63.59
2018-08-17T00:07:32.385Z,63.38
2018-08-17T00:10:00.718Z,62.80
2018-08-17T00:12:29.253Z,63.01
2018-08-17T00:14:57.659Z,63.53
2018-08-17T00:17:26.323Z,64.55
2018-08-17T00:19:54.784Z,63.25
2018-08-17T00:22:26.204Z,63.45
2018-08-17T00:24:54.587Z,63.15
2018-08-17T00:27:22.922Z,64.16
2018-08-17T00:29:51.312Z,63.97
2018-08-17T00:32:19.995Z,64.34
2018-08-17T00:34:48.455Z,64.86
2018-08-17T00:37:16.831Z,65.61
2018-08-17T00:39:46.091Z,64.90
2018-08-17T00:42:14.359Z,64.95
2018-08-17T00:44:42.750Z,65.21
2018-08-17T00:47:11.178Z,65.27
2018-08-17T00:49:39.591Z,64.41
2018-08-17T00:52:07.922Z,64.21
2018-08-17T00:54:36.192Z,65.55
2018-08-17T00:57:04.582Z,65.88
2018-08-17T00:59:32.939Z,64.71
2018-08-17T01:02:01.251Z,65.62
2018-08-17T01:04:29.570Z,64.31
2018-08-17T01:06:57.843Z,65.30
2018-08-17T01:09:26.301Z,64.99
2018-08-17T01:11:54.617Z,65.35
2018-08-17T01:14:23.058Z,64.47
2018-08-17T01:16:51.439Z,65.16
2018-08-17T01:19:19.850Z,65.43
2018-08-17T01:21:48.315Z,65.46
2018-08-17T01:24:16.741Z,65.01
2018-08-17T01:26:45.181Z,66.35
2018-08-17T01:29:13.594Z,66.36
2018-08-17T01:31:42.060Z,65.46
2018-08-17T01:34:10.477Z,65.67
2018-08-17T01:36:38.925Z,66.11
2018-08-17T01:39:08.362Z,65.29
2018-08-17T01:41:36.856Z,65.78
2018-08-17T01:44:05.243Z,66.05
2018-08-17T01:46:33.749Z,65.79
2018-08-17T01:49:02.259Z,66.76
2018-08-17T01:51:30.728Z,67.05
2018-08-17T01:53:59.178Z,65.03
2018-08-17T01:56:27.578Z,65.89
2018-08-17T01:58:55.998Z,67.42
2018-08-17T02:01:24.500Z,66.59
2018-08-17T02:03:53.313Z,65.47
2018-08-17T02:06:21.767Z,66.10
2018-08-17T02:08:50.191Z,65.10
2018-08-17T02:11:18.643Z,66.17
2018-08-17T02:13:47.039Z,66.26
2018-08-17T02:16:15.655Z,66.21
2018-08-17T02:18:44.082Z,65.60
2018-08-17T02:21:12.596Z,65.63
2018-08-17T02:23:41.050Z,67.81
2018-08-17T02:26:09.418Z,68.11
2018-08-17T02:28:37.790Z,68.90
2018-08-17T02:31:06.227Z,68.21
2018-08-17T02:33:34.580Z,67.01
2018-08-17T02:36:02.908Z,67.32
2018-08-17T02:38:31.185Z,66.93
2018-08-17T02:40:59.436Z,65.95
2018-08-17T02:43:27.687Z,67.16
2018-08-17T02:45:56.086Z,67.33
2018-08-17T02:48:24.480Z,68.08
2018-08-17T02:50:53.151Z,66.86
2018-08-17T02:53:21.769Z,65.73
2018-08-17T02:55:50.102Z,66.07
2018-08-17T02:58:18.459Z,66.36
2018-08-17T03:00:46.830Z,68.15
2018-08-17T03:03:15.205Z,66.69
2018-08-17T03:05:43.583Z,67.48
2018-08-17T03:08:11.946Z,67.69
2018-08-17T03:10:40.352Z,68.25
2018-08-17T03:13:08.695Z,67.68
2018-08-17T03:15:37.009Z,67.12
2018-08-17T03:18:05.350Z,66.46
2018-08-17T03:20:33.628Z,65.41
2018-08-17T03:23:01.887Z,66.85
2018-08-17T03:25:30.166Z,67.47
2018-08-17T03:27:58.523Z,66.94
2018-08-17T03:30:26.872Z,67.27
2018-08-17T03:32:55.214Z,67.62
2018-08-17T03:35:23.504Z,66.56
2018-08-17T03:37:52.110Z,67.19
2018-08-17T03:40:20.382Z,67.42
2018-08-17T03:42:48.671Z,66.70
2018-08-17T03:45:17.323Z,67.56
2018-08-17T03:47:45.622Z,66.24
2018-08-17T03:50:13.911Z,68.54
2018-08-17T03:52:42.209Z,67.81
2018-08-17T03:55:10.676Z,67.36
2018-08-17T03:57:39.067Z,67.58
2018-08-17T04:00:07.494Z,66.90
2018-08-17T04:02:35.959Z,67.19
2018-08-17T04:05:04.686Z,66.47
2018-08-17T04:07:32.991Z,67.08
2018-08-17T04:10:01.286Z,67.29
2018-08-17T04:12:29.611Z,66.72
2018-08-17T04:14:57.951Z,68.06
2018-08-17T04:17:26.285Z,67.33
2018-08-17T04:19:54.644Z,68.37
2018-08-17T04:22:22.970Z,67.50
2018-08-17T04:24:51.275Z,67.45
2018-08-17T04:27:19.671Z,68.53
2018-08-17T04:29:48.072Z,68.81
2018-08-17T04:32:16.502Z,68.69
2018-08-17T04:34:44.889Z,67.11
2018-08-17T04:37:13.278Z,68.03
2018-08-17T04:39:41.775Z,67.54
2018-08-17T04:42:11.167Z,67.96
2018-08-17T04:44:39.645Z,68.41
2018-08-17T04:47:08.198Z,66.54
2018-08-17T04:49:36.913Z,65.90
2018-08-17T04:52:06.604Z,67.01
2018-08-17T04:54:34.947Z,66.41
2018-08-17T04:57:04.399Z,66.81
2018-08-17T04:59:33.105Z,67.42
2018-08-17T05:02:01.331Z,68.33
2018-08-17T05:04:29.610Z,65.48
2018-08-17T05:06:57.947Z,65.01
2018-08-17T05:09:26.230Z,65.15
2018-08-17T05:11:54.581Z,64.05
2018-08-17T05:14:22.943Z,66.26
2018-08-17T05:16:51.516Z,65.56
2018-08-17T05:19:19.906Z,65.57
2018-08-17T05:21:48.310Z,64.51
2018-08-17T05:24:17.069Z,64.88
2018-08-17T05:26:45.848Z,64.92
2018-08-17T05:29:14.363Z,64.03
2018-08-17T05:31:42.725Z,63.52
2018-08-17T05:34:11.178Z,64.40
2018-08-17T05:36:39.577Z,63.00
2018-08-17T05:39:08.754Z,64.64
2018-08-17T05:41:38.004Z,64.20
2018-08-17T05:44:06.607Z,64.70
2018-08-17T05:46:34.915Z,63.89
2018-08-17T05:49:03.198Z,61.63
2018-08-17T05:51:31.490Z,63.05
2018-08-17T05:53:59.897Z,63.67
2018-08-17T05:56:28.251Z,63.50
2018-08-17T05:58:56.610Z,64.72
2018-08-17T06:01:24.885Z,65.70
2018-08-17T06:03:53.340Z,66.28
2018-08-17T06:06:21.637Z,65.38
2018-08-17T06:08:50.005Z,65.12
2018-08-17T06:11:18.541Z,62.09
2018-08-17T06:13:46.750Z,60.34
2018-08-17T06:16:15.157Z,58.44
2018-08-17T06:18:43.449Z,56.44
2018-08-17T06:21:11.815Z,54.73
2018-08-17T06:23:40.166Z,54.22
2018-08-17T06:26:08.541Z,52.21
2018-08-17T06:28:36.939Z,49.84
2018-08-17T06:31:05.333Z,47.47
2018-08-17T06:33:33.766Z,47.37
2018-08-17T06:36:02.300Z,47.94
2018-08-17T06:38:30.711Z,49.72
2018-08-17T06:40:59.106Z,48.02
2018-08-17T06:43:27.543Z,45.36
2018-08-17T06:45:55.931Z,47.36
2018-08-17T06:48:24.323Z,46.41
2018-08-17T06:50:52.830Z,45.68
2018-08-17T06:53:21.198Z,48.57
2018-08-17T06:55:49.603Z,49.83
2018-08-17T06:58:18.070Z,51.39
2018-08-17T07:00:46.466Z,54.40
2018-08-17T07:03:14.840Z,55.68
2018-08-17T07:05:43.178Z,55.15
2018-08-17T07:08:11.610Z,53.94
2018-08-17T07:10:40.041Z,56.79
2018-08-17T07:13:08.403Z,55.25
2018-08-17T07:15:36.828Z,53.58
2018-08-17T07:18:05.250Z,55.38
2018-08-17T07:20:33.682Z,55.75
2018-08-17T07:23:02.098Z,54.94
2018-08-17T07:25:30.523Z,52.54
2018-08-17T07:27:59.025Z,50.03
2018-08-17T07:30:27.419Z,47.29
2018-08-17T07:32:55.896Z,47.72
2018-08-17T07:35:24.451Z,46.78
2018-08-17T07:37:52.871Z,44.92
2018-08-17T07:40:21.280Z,48.06
2018-08-17T07:42:49.721Z,48.34
2018-08-17T07:45:18.118Z,49.02
2018-08-17T07:47:46.616Z,47.02
2018-08-17T07:50:22.093Z,47.69
2018-08-17T07:52:50.599Z,46.09
2018-08-17T07:55:19.108Z,45.21
2018-08-17T07:57:47.544Z,43.56
2018-08-17T08:00:15.979Z,43.83
2018-08-17T08:02:44.441Z,45.70
2018-08-17T08:05:12.866Z,46.82
2018-08-17T08:07:41.360Z,47.10
2018-08-17T08:10:10.698Z,46.72
2018-08-17T08:12:39.310Z,48.83
2018-08-17T08:15:07.924Z,48.99
2018-08-17T08:17:36.570Z,46.60
2018-08-17T08:20:16.155Z,47.95
2018-08-17T08:22:44.542Z,46.54
2018-08-17T08:25:12.955Z,47.58
2018-08-17T08:27:41.279Z,48.46
2018-08-17T08:30:09.646Z,48.21
2018-08-17T08:32:38.026Z,49.35
2018-08-17T08:35:07.799Z,49.46
2018-08-17T08:37:36.046Z,47.52
2018-08-17T08:40:04.626Z,44.67
2018-08-17T08:42:32.988Z,41.84
2018-08-17T08:45:02.346Z,43.60
2018-08-17T08:47:30.653Z,42.58
2018-08-17T08:49:58.882Z,41.41
2018-08-17T08:52:27.468Z,42.79
2018-08-17T08:54:55.784Z,45.68
2018-08-17T08:57:24.027Z,45.50
2018-08-17T08:59:52.315Z,47.30
2018-08-17T09:02:20.690Z,49.94
2018-08-17T09:04:48.991Z,49.80
2018-08-17T09:07:17.275Z,50.69
2018-08-17T09:09:45.610Z,50.51
2018-08-17T09:12:13.933Z,45.38
2018-08-17T09:14:48.971Z,42.43
2018-08-17T09:17:17.249Z,40.77
2018-08-17T09:19:45.559Z,41.11
2018-08-17T09:22:14.846Z,38.67
2018-08-17T09:24:43.167Z,38.23
2018-08-17T09:27:11.442Z,35.50
2018-08-17T09:29:39.699Z,35.29
2018-08-17T09:32:08.011Z,36.84
2018-08-17T09:34:36.394Z,36.61
2018-08-17T09:37:04.663Z,40.77
2018-08-17T09:39:32.938Z,40.63
2018-08-17T09:42:01.246Z,45.32
2018-08-17T09:44:29.574Z,44.17
2018-08-17T09:46:57.831Z,49.11
2018-08-17T09:49:26.078Z,50.53
2018-08-17T09:51:54.329Z,50.13
2018-08-17T09:54:22.603Z,52.12
2018-08-17T09:56:50.841Z,49.33
2018-08-17T09:59:19.094Z,49.39
2018-08-17T10:01:52.575Z,50.78
2018-08-17T10:04:26.028Z,46.90
2018-08-17T10:06:59.487Z,48.15
2018-08-17T10:09:32.981Z,48.22
2018-08-17T10:12:01.492Z,45.95
2018-08-17T10:14:29.951Z,43.76
2018-08-17T10:16:58.355Z,43.90
2018-08-17T10:19:26.745Z,41.90
2018-08-17T10:21:55.979Z,39.61
2018-08-17T10:24:24.661Z,36.73
2018-08-17T10:26:54.003Z,30.33
2018-08-17T10:29:22.963Z,33.31
2018-08-17T10:31:51.496Z,30.71
2018-08-17T10:34:20.269Z,30.24
2018-08-17T10:36:48.716Z,28.96
2018-08-17T10:39:17.122Z,30.36
2018-08-17T10:41:45.573Z,30.11
2018-08-17T10:44:14.026Z,31.04
2018-08-17T10:46:42.853Z,30.70
2018-08-17T10:49:11.636Z,33.85
2018-08-17T10:51:39.967Z,31.48
2018-08-17T10:54:08.405Z,34.59
2018-08-17T10:56:36.867Z,35.77
2018-08-17T10:59:05.327Z,36.92
2018-08-17T11:01:33.750Z,36.83
2018-08-17T11:04:02.130Z,36.32
2018-08-17T11:06:30.527Z,34.74
2018-08-17T11:08:58.964Z,37.65
2018-08-17T11:11:27.372Z,35.32
2018-08-17T11:13:55.828Z,35.69
2018-08-17T11:16:24.213Z,36.11
2018-08-17T11:18:52.675Z,33.41
2018-08-17T11:21:21.079Z,35.72
2018-08-17T11:23:49.559Z,33.97
2018-08-17T11:26:18.016Z,33.85
2018-08-17T11:28:46.445Z,30.80
2018-08-17T11:31:21.617Z,30.14
2018-08-17T11:33:50.086Z,29.39
2018-08-17T11:36:22.697Z,28.93
2018-08-17T11:38:51.123Z,28.91
2018-08-17T11:41:19.544Z,27.45
2018-08-17T11:43:48.218Z,26.78
2018-08-17T11:46:16.665Z,29.05
2018-08-17T11:48:45.451Z,27.86
2018-08-17T11:51:13.721Z,28.17
2018-08-17T11:53:46.968Z,29.68
2018-08-17T11:56:15.270Z,31.52
2018-08-17T11:58:43.579Z,33.55
2018-08-17T12:01:18.597Z,32.79
2018-08-17T12:03:46.822Z,34.76
2018-08-17T12:06:15.131Z,33.89
2018-08-17T12:08:43.716Z,32.52
2018-08-17T12:11:12.113Z,30.94
2018-08-17T12:13:40.513Z,31.42
2018-08-17T12:16:11.366Z,31.28
2018-08-17T12:18:39.751Z,33.37
2018-08-17T12:21:08.210Z,31.76
2018-08-17T12:23:36.699Z,32.96
2018-08-17T12:26:05.084Z,33.82
2018-08-17T12:28:33.450Z,35.97
2018-08-17T12:31:01.878Z,33.87
2018-08-17T12:33:30.354Z,34.50
2018-08-17T12:35:58.809Z,33.76
2018-08-17T12:38:27.196Z,33.63
2018-08-17T12:40:56.642Z,35.15
2018-08-17T12:43:38.785Z,34.45
2018-08-17T12:46:07.232Z,34.32
2018-08-17T12:48:35.475Z,35.10
2018-08-17T12:51:05.028Z,34.81
2018-08-17T12:53:33.299Z,34.87
2018-08-17T12:56:01.649Z,38.12
2018-08-17T12:58:29.961Z,38.46
2018-08-17T13:00:58.331Z,38.38
2018-08-17T13:03:26.654Z,39.07
2018-08-17T13:05:55.030Z,37.86
2018-08-17T13:08:23.626Z,37.32
2018-08-17T13:10:52.257Z,38.13
2018-08-17T13:13:20.746Z,37.64
2018-08-17T13:15:54.298Z,36.95
2018-08-17T13:18:23.590Z,39.46
2018-08-17T13:20:51.926Z,39.47
2018-08-17T13:23:20.812Z,40.14
2018-08-17T13:25:49.619Z,39.98
2018-08-17T13:28:17.967Z,40.20
2018-08-17T13:30:46.332Z,39.86
2018-08-17T13:33:15.274Z,39.91
2018-08-17T13:35:43.665Z,40.13
2018-08-17T13:38:12.499Z,39.87
2018-08-17T13:40:42.066Z,39.14
2018-08-17T13:43:10.434Z,41.17
2018-08-17T13:45:39.183Z,40.95
2018-08-17T13:48:07.701Z,42.02
2018-08-17T13:50:36.016Z,42.85
2018-08-17T13:53:04.408Z,43.21
2018-08-17T13:55:32.963Z,42.72
2018-08-17T13:58:01.907Z,43.77
2018-08-17T14:00:30.270Z,43.36
2018-08-17T14:02:59.373Z,43.38
2018-08-17T14:05:27.710Z,44.82
2018-08-17T14:07:56.378Z,43.70
2018-08-17T14:10:24.711Z,43.11
2018-08-17T14:12:53.215Z,43.08
2018-08-17T14:15:21.894Z,44.61
2018-08-17T14:17:50.536Z,45.01
2018-08-17T14:20:19.122Z,45.41
2018-08-17T14:22:47.683Z,48.25
2018-08-17T14:25:16.199Z,47.67
2018-08-17T14:27:44.977Z,47.74
2018-08-17T14:30:16.302Z,47.75
2018-08-17T14:32:45.107Z,47.67
2018-08-17T14:35:14.100Z,48.23
2018-08-17T14:37:42.601Z,47.91
2018-08-17T14:40:11.477Z,50.67
2018-08-17T14:42:40.280Z,50.18
2018-08-17T14:45:09.547Z,49.05
2018-08-17T14:47:38.299Z,49.78
2018-08-17T14:50:10.486Z,49.93
2018-08-17T14:52:39.062Z,50.26
2018-08-17T14:55:08.943Z,50.98
2018-08-17T14:57:37.426Z,51.53
2018-08-17T15:00:09.523Z,51.00
2018-08-17T15:02:41.248Z,50.36
2018-08-17T15:05:11.122Z,50.60
2018-08-17T15:07:39.877Z,51.82
2018-08-17T15:10:09.323Z,51.77
2018-08-17T15:12:37.896Z,52.67
2018-08-17T15:15:06.529Z,51.96
2018-08-17T15:17:35.045Z,52.90
2018-08-17T15:20:03.654Z,54.65
2018-08-17T15:22:32.171Z,51.50
2018-08-17T15:25:00.649Z,52.44
2018-08-17T15:27:29.197Z,50.60
2018-08-17T15:29:57.930Z,50.86
2018-08-17T15:32:26.327Z,49.24
2018-08-17T15:34:54.913Z,50.10
2018-08-17T15:37:23.306Z,50.26
2018-08-17T15:39:51.694Z,50.96
2018-08-17T15:42:20.079Z,51.29
2018-08-17T15:44:48.744Z,51.55
2018-08-17T15:47:17.204Z,50.47
2018-08-17T15:50:04.138Z,52.21
2018-08-17T15:52:32.518Z,53.14
2018-08-17T15:55:01.267Z,52.27
2018-08-17T15:57:29.748Z,51.42
2018-08-17T15:59:58.283Z,52.83
2018-08-17T16:02:26.900Z,54.60
2018-08-17T16:04:55.353Z,53.81
2018-08-17T16:07:24.036Z,56.57
2018-08-17T16:09:53.083Z,53.74
2018-08-17T16:12:21.555Z,53.19
2018-08-17T16:14:50.041Z,55.17
2018-08-17T16:17:19.830Z,54.90
2018-08-17T16:19:48.834Z,55.30
2018-08-17T16:22:17.392Z,54.07
2018-08-17T16:24:46.084Z,56.28
2018-08-17T16:27:14.599Z,56.06
2018-08-17T16:29:43.111Z,55.99
2018-08-17T16:32:11.855Z,56.53
2018-08-17T16:34:40.277Z,54.71
2018-08-17T16:37:08.850Z,56.25
2018-08-17T16:39:43.622Z,55.51
2018-08-17T16:42:19.695Z,56.73
2018-08-17T16:44:48.645Z,56.66
2018-08-17T16:47:16.927Z,56.03
2018-08-17T16:49:45.238Z,57.42
2018-08-17T16:52:14.190Z,56.84
2018-08-17T16:54:42.653Z,56.23
2018-08-17T16:57:12.236Z,55.45
2018-08-17T16:59:40.684Z,55.56
2018-08-17T17:02:09.154Z,55.95
2018-08-17T17:04:40.653Z,56.20
2018-08-17T17:07:09.101Z,56.76
2018-08-17T17:09:37.700Z,54.04
2018-08-17T17:12:12.392Z,54.01
2018-08-17T17:14:40.811Z,53.39
2018-08-17T17:17:09.161Z,54.14
2018-08-17T17:19:37.430Z,55.38
2018-08-17T17:22:06.151Z,55.36
2018-08-17T17:24:34.443Z,56.33
2018-08-17T17:27:03.244Z,56.68
2018-08-17T17:29:34.917Z,57.13
2018-08-17T17:32:03.499Z,54.80
2018-08-17T17:34:32.103Z,56.15
2018-08-17T17:37:00.502Z,58.41
2018-08-17T17:39:28.918Z,59.24
2018-08-17T17:41:57.311Z,57.34
2018-08-17T17:44:25.728Z,58.96
2018-08-17T17:46:54.279Z,58.69
2018-08-17T17:49:22.593Z,59.12
2018-08-17T17:51:50.872Z,56.61
2018-08-17T17:54:21.511Z,57.95
2018-08-17T17:56:54.454Z,58.48
2018-08-17T17:59:22.734Z,57.06
2018-08-17T18:01:51.022Z,57.66
2018-08-17T18:04:19.322Z,57.58
2018-08-17T18:06:47.603Z,57.43
2018-08-17T18:09:15.858Z,57.84
2018-08-17T18:11:44.139Z,57.90
2018-08-17T18:14:12.467Z,57.96
2018-08-17T18:16:40.868Z,58.42
2018-08-17T18:19:09.118Z,58.63
2018-08-17T18:21:37.485Z,59.18
2018-08-17T18:24:11.112Z,59.37
2018-08-17T18:26:44.485Z,58.75
2018-08-17T18:29:12.726Z,60.44
2018-08-17T18:31:40.965Z,60.31
2018-08-17T18:34:09.219Z,60.88
2018-08-17T18:36:37.475Z,61.20
2018-08-17T18:39:08.778Z,62.08
2018-08-17T18:41:37.039Z,61.53
2018-08-17T18:44:05.294Z,60.49
2018-08-17T18:46:34.840Z,60.19
2018-08-17T18:49:03.270Z,61.69
2018-08-17T18:51:31.538Z,61.06
2018-08-17T18:53:59.804Z,61.35
2018-08-17T18:56:28.129Z,61.96
2018-08-17T18:58:56.520Z,61.46
2018-08-17T19:01:24.795Z,61.68
2018-08-17T19:03:53.064Z,62.07
2018-08-17T19:06:21.297Z,60.96
2018-08-17T19:08:49.592Z,61.01
2018-08-17T19:11:17.844Z,59.56
2018-08-17T19:13:46.091Z,59.96
2018-08-17T19:16:14.421Z,60.22
2018-08-17T19:18:42.722Z,59.11
2018-08-17T19:21:12.470Z,58.18
2018-08-17T19:23:40.805Z,59.72
2018-08-17T19:26:15.871Z,59.86
2018-08-17T19:28:44.129Z,58.31
2018-08-17T19:31:12.503Z,60.20
2018-08-17T19:33:40.818Z,58.93
2018-08-17T19:36:09.139Z,59.58
2018-08-17T19:38:39.458Z,60.10
2018-08-17T19:41:07.854Z,59.50
2018-08-17T19:43:36.423Z,58.90
2018-08-17T19:46:05.028Z,60.96
2018-08-17T19:48:33.560Z,59.76
2018-08-17T19:51:02.178Z,60.15
2018-08-17T19:53:30.558Z,59.60
2018-08-17T19:55:58.955Z,59.93
2018-08-17T19:58:27.370Z,58.62
2018-08-17T20:00:55.872Z,59.04
2018-08-17T20:03:24.290Z,58.60
2018-08-17T20:05:52.806Z,56.89
2018-08-17T20:08:21.314Z,57.11
2018-08-17T20:10:50.918Z,56.68
2018-08-17T20:13:19.377Z,57.47
2018-08-17T20:15:47.739Z,56.25
2018-08-17T20:18:16.138Z,56.73
2018-08-17T20:20:44.474Z,55.73
2018-08-17T20:23:12.872Z,56.14
2018-08-17T20:25:41.316Z,56.32
2018-08-17T20:28:09.697Z,57.37
2018-08-17T20:30:39.038Z,55.07
2018-08-17T20:33:13.071Z,56.10
2018-08-17T20:35:41.822Z,54.97
2018-08-17T20:38:10.255Z,55.00
2018-08-17T20:40:38.661Z,55.25
2018-08-17T20:43:07.201Z,55.27
2018-08-17T20:45:35.528Z,55.81
2018-08-17T20:48:03.986Z,54.59
2018-08-17T20:50:32.412Z,53.61
2018-08-17T20:53:00.870Z,54.60
2018-08-17T20:55:29.294Z,53.79
2018-08-17T20:57:58.550Z,54.58
2018-08-17T21:00:28.381Z,53.94
2018-08-17T21:02:56.955Z,53.03
2018-08-17T21:05:25.336Z,52.99
2018-08-17T21:07:53.776Z,52.07
2018-08-17T21:10:22.103Z,50.96
2018-08-17T21:12:50.759Z,51.36
2018-08-17T21:15:19.333Z,51.73
2018-08-17T21:17:48.396Z,51.58
2018-08-17T21:20:16.788Z,51.42
2018-08-17T21:22:45.250Z,50.67
2018-08-17T21:25:13.511Z,51.42
2018-08-17T21:27:41.969Z,51.40
2018-08-17T21:30:10.883Z,51.31
2018-08-17T21:32:39.267Z,52.59
2018-08-17T21:35:07.896Z,51.65
2018-08-17T21:37:36.554Z,51.17
2018-08-17T21:40:06.589Z,49.67
2018-08-17T21:42:35.039Z,51.17
2018-08-17T21:45:04.773Z,52.21
2018-08-17T21:47:33.237Z,51.83
2018-08-17T21:50:08.534Z,51.57
2018-08-17T21:52:37.039Z,52.44
2018-08-17T21:55:05.420Z,53.81
2018-08-17T21:57:33.931Z,54.00
2018-08-17T22:00:02.426Z,54.54
2018-08-17T22:02:30.855Z,55.66
2018-08-17T22:05:00.313Z,54.70
2018-08-17T22:07:31.523Z,54.79
2018-08-17T22:10:00.441Z,55.54
2018-08-17T22:12:29.015Z,55.95
2018-08-17T22:14:57.453Z,56.61
2018-08-17T22:17:36.967Z,57.20
2018-08-17T22:20:07.754Z,57.76
2018-08-17T22:22:36.109Z,57.32
2018-08-17T22:25:09.324Z,59.00
2018-08-17T22:27:37.857Z,60.03
2018-08-17T22:30:10.430Z,60.57
2018-08-17T22:32:38.818Z,61.15
2018-08-17T22:35:07.261Z,60.93
2018-08-17T22:37:35.608Z,60.73
2018-08-17T22:40:04.246Z,59.70
2018-08-17T22:42:32.786Z,60.58
2018-08-17T22:45:01.690Z,59.74
2018-08-17T22:47:30.295Z,59.89
2018-08-17T22:49:59.987Z,60.46
2018-08-17T22:52:31.564Z,61.59
2018-08-17T22:55:01.058Z,62.24
2018-08-17T22:57:30.135Z,62.13
2018-08-17T23:00:11.904Z,61.60
2018-08-17T23:02:41.253Z,61.67
2018-08-17T23:05:12.914Z,61.20
2018-08-17T23:07:41.335Z,61.32
2018-08-17T23:10:12.856Z,62.60
2018-08-17T23:12:41.376Z,63.17
2018-08-17T23:15:10.782Z,63.05
2018-08-17T23:17:39.625Z,61.90
2018-08-17T23:20:08.304Z,62.30
2018-08-17T23:22:45.910Z,61.81
2018-08-17T23:25:14.577Z,60.96
2018-08-17T23:27:43.073Z,61.14
2018-08-17T23:30:11.418Z,60.91
2018-08-17T23:32:39.819Z,61.28
2018-08-17T23:35:08.362Z,61.38
2018-08-17T23:37:37.079Z,60.66
2018-08-17T23:40:06.041Z,61.86
2018-08-17T23:42:34.693Z,61.81
2018-08-17T23:45:03.391Z,62.59
2018-08-17T23:47:32.110Z,63.61
2018-08-17T23:50:00.497Z,64.93
2018-08-17T23:52:28.850Z,64.37
2018-08-17T23:54:57.297Z,65.11
2018-08-17T23:57:25.717Z,65.07
2018-08-17T23:59:54.145Z,64.93
